Cherry Hills Village, CO (80113)

9:54 AM MST on December 19, 2014 (GMT -0700)
Cherry Hills Village | Change Station
CLOSE
Current Station
Personal Weather Station
Location: Englewood, CO
Elevation: 5397 ft
Nearby Weather Stations

Elev 5397 ft 39.64 °N, 104.96 °W | Updated 7 seconds ago

Clear
Clear
36.3 °F
Feels Like 30 °F
N
7.6
Wind Variable Wind from South
Gusts 8.3 mph

Today
High -- | Low -- °F
--% Chance of Precip.
Yesterday
High -- | Low -- °F
Precip. -- in
7:16 AM 4:38 PM
Waning Crescent, 7% visible
Pressure 30.21 in
Visibility 10.0 miles
Clouds Few 8000 ft
Windchill 30 °F
Dew Point 12 °F
Humidity 36%
Rainfall 0.00 in
Snow Depth Not available.
UV 1 out of 12
Pollen .10 out of 12
Air Quality Not available.
Flu Activity Not available.
METAR KAPA 191553Z 08003KT 10SM FEW080 M02/M04 A3010 RMK AO2 SLP228 T10221044

More Conditions Fewer Conditions

Pressure 30.21 in
Visibility 10.0 miles
Clouds Few 8000 ft
Windchill 30 °F
Dew Point 12 °F
Humidity 36%
Rainfall 0.00 in
Snow Depth Not available.
UV 1 out of 12
Pollen .10 out of 12
Air Quality Not available.
Flu Activity Not available.
METAR KAPA 191553Z 08003KT 10SM FEW080 M02/M04 A3010 RMK AO2 SLP228 T10221044

More Conditions Fewer Conditions

10-Day Weather Forecast

Almanac

Astronomy

Dec. 19, 2014 Rise Set
Actual Time
Civil Twilight
Nautical Twilight
Astronomical Twilight
Moon
Length of Visible Light
Length of Day
Tomorrow will be .
, % of the Moon is Illuminated

Today's Extremes

State Highs State Lows

Community

WunderPhotos

Upload Photos

1,779,005 photos uploaded!

WunderBlogs® & News

Nearby

Air Quality

  Air Quality AQ Index Pollutant
Not available.

Snow Depth

Station Depth Elevation

Earthquake Activity

City Distance Mag. Time & Date
Minimum magnitude displayed is 2.5.

Coastal Water Temperatures

Place Temperature

Nearby Weather Stations